createdAt,value
2017-07-11T00:02:18.217Z,16.60
2017-07-11T00:04:46.630Z,16.60
2017-07-11T00:07:15.805Z,16.60
2017-07-11T00:09:44.412Z,16.60
2017-07-11T00:12:12.799Z,16.60
2017-07-11T00:14:42.029Z,16.50
2017-07-11T00:17:10.466Z,16.50
2017-07-11T00:19:39.631Z,16.40
2017-07-11T00:22:08.049Z,16.40
2017-07-11T00:24:36.441Z,16.40
2017-07-11T00:27:04.943Z,16.30
2017-07-11T00:29:33.352Z,16.30
2017-07-11T00:32:01.743Z,16.40
2017-07-11T00:34:30.922Z,16.30
2017-07-11T00:36:59.311Z,16.30
2017-07-11T00:39:27.914Z,16.20
2017-07-11T00:41:57.076Z,16.20
2017-07-11T00:44:25.475Z,16.20
2017-07-11T00:46:53.895Z,16.10
2017-07-11T00:49:22.291Z,16.10
2017-07-11T00:51:50.940Z,16.10
2017-07-11T00:54:19.311Z,16.10
2017-07-11T00:56:48.487Z,15.90
2017-07-11T00:59:16.888Z,15.90
2017-07-11T01:01:46.045Z,15.90
2017-07-11T01:04:14.629Z,15.90
2017-07-11T01:06:43.040Z,15.90
2017-07-11T01:09:12.200Z,15.80
2017-07-11T01:11:40.599Z,15.80
2017-07-11T01:14:08.993Z,15.70
2017-07-11T01:16:38.510Z,15.60
2017-07-11T01:19:06.916Z,15.60
2017-07-11T01:21:35.317Z,15.50
2017-07-11T01:24:03.709Z,15.40
2017-07-11T01:26:32.103Z,15.30
2017-07-11T01:29:01.533Z,15.30
2017-07-11T01:31:29.914Z,15.30
2017-07-11T01:33:58.299Z,15.30
2017-07-11T01:36:34.918Z,15.30
2017-07-11T01:39:02.969Z,15.30
2017-07-11T01:41:31.417Z,15.20
2017-07-11T01:43:59.804Z,15.30
2017-07-11T01:46:28.194Z,15.20
2017-07-11T01:48:56.598Z,15.20
2017-07-11T01:51:24.630Z,15.20
2017-07-11T01:53:53.196Z,15.10
2017-07-11T01:56:21.570Z,15.10
2017-07-11T01:58:49.960Z,15.10
2017-07-11T02:01:18.022Z,15.10
2017-07-11T02:03:46.426Z,15.10
2017-07-11T02:06:14.858Z,15.00
2017-07-11T02:08:44.023Z,14.90
2017-07-11T02:11:12.431Z,14.90
2017-07-11T02:13:41.084Z,14.90
2017-07-11T02:16:09.461Z,14.90
2017-07-11T02:18:37.930Z,14.80
2017-07-11T02:21:06.365Z,14.80
2017-07-11T02:23:34.749Z,14.70
2017-07-11T02:26:03.140Z,14.70
2017-07-11T02:28:31.515Z,14.70
2017-07-11T02:30:59.916Z,14.70
2017-07-11T02:33:28.325Z,14.60
2017-07-11T02:35:56.721Z,14.60
2017-07-11T02:38:25.895Z,14.60
2017-07-11T02:40:54.281Z,14.60
2017-07-11T02:43:22.729Z,14.50
2017-07-11T02:45:51.135Z,14.50
2017-07-11T02:48:19.524Z,14.50
2017-07-11T02:50:48.695Z,14.50
2017-07-11T02:53:17.081Z,14.50
2017-07-11T02:55:45.571Z,14.50
2017-07-11T02:58:14.729Z,14.50
2017-07-11T03:00:43.120Z,14.50
2017-07-11T03:03:11.553Z,14.50
2017-07-11T03:05:39.930Z,14.50
2017-07-11T03:08:08.496Z,14.50
2017-07-11T03:10:37.650Z,14.50
2017-07-11T03:13:06.079Z,14.50
2017-07-11T03:15:35.234Z,14.50
2017-07-11T03:18:03.623Z,14.50
2017-07-11T03:20:32.254Z,14.50
2017-07-11T03:23:00.626Z,14.50
2017-07-11T03:25:29.005Z,14.50
2017-07-11T03:27:57.516Z,14.50
2017-07-11T03:30:25.904Z,14.50
2017-07-11T03:32:54.535Z,14.50
2017-07-11T03:35:23.687Z,14.40
2017-07-11T03:37:52.072Z,14.40
2017-07-11T03:40:20.471Z,14.40
2017-07-11T03:42:49.642Z,14.40
2017-07-11T03:45:18.979Z,14.40
2017-07-11T03:47:47.373Z,14.40
2017-07-11T03:50:15.758Z,14.40
2017-07-11T03:52:44.194Z,14.40
2017-07-11T03:55:12.590Z,14.40
2017-07-11T03:57:41.106Z,14.40
2017-07-11T04:00:09.500Z,14.40
2017-07-11T04:02:37.893Z,14.50
2017-07-11T04:05:06.311Z,14.50
2017-07-11T04:07:34.728Z,14.40
2017-07-11T04:10:03.478Z,14.40
2017-07-11T04:12:32.663Z,14.50
2017-07-11T04:15:01.053Z,14.50
2017-07-11T04:17:30.219Z,14.50
2017-07-11T04:19:58.606Z,14.40
2017-07-11T04:22:27.240Z,14.40
2017-07-11T04:24:55.630Z,14.50
2017-07-11T04:27:24.026Z,14.60
2017-07-11T04:29:52.426Z,14.70
2017-07-11T04:32:20.828Z,14.80
2017-07-11T04:34:50.217Z,14.90
2017-07-11T04:37:19.377Z,14.90
2017-07-11T04:39:47.770Z,14.90
2017-07-11T04:42:16.157Z,14.90
2017-07-11T04:44:44.530Z,15.00
2017-07-11T04:47:13.083Z,14.90
2017-07-11T04:49:41.477Z,14.90
2017-07-11T04:52:09.852Z,14.90
2017-07-11T04:54:38.254Z,14.90
2017-07-11T04:57:06.682Z,15.00
2017-07-11T04:59:35.333Z,15.20
2017-07-11T05:02:04.495Z,15.20
2017-07-11T05:04:32.889Z,15.20
2017-07-11T05:07:01.282Z,15.20
2017-07-11T05:09:30.450Z,15.40
2017-07-11T05:11:58.908Z,15.50
2017-07-11T05:14:27.299Z,15.60
2017-07-11T05:16:55.689Z,15.70
2017-07-11T05:19:24.081Z,15.80
2017-07-11T05:21:52.470Z,15.70
2017-07-11T05:24:21.877Z,16.00
2017-07-11T05:26:50.268Z,16.00
2017-07-11T05:29:18.654Z,16.10
2017-07-11T05:31:47.078Z,16.10
2017-07-11T05:34:15.467Z,16.00
2017-07-11T05:36:43.926Z,16.00
2017-07-11T05:39:12.337Z,16.10
2017-07-11T05:41:42.045Z,16.40
2017-07-11T05:44:11.201Z,16.60
2017-07-11T05:46:39.585Z,16.60
2017-07-11T05:49:08.205Z,16.70
2017-07-11T05:51:37.358Z,16.90
2017-07-11T05:54:05.749Z,16.90
2017-07-11T05:56:34.151Z,16.90
2017-07-11T05:59:02.528Z,17.00
2017-07-11T06:01:31.048Z,17.10
2017-07-11T06:03:59.441Z,17.20
2017-07-11T06:06:27.846Z,17.30
2017-07-11T06:08:56.263Z,17.40
2017-07-11T06:11:24.671Z,17.60
2017-07-11T06:13:53.234Z,17.40
2017-07-11T06:16:21.639Z,17.40
2017-07-11T06:18:50.276Z,17.50
2017-07-11T06:21:19.458Z,17.60
2017-07-11T06:23:47.663Z,17.50
2017-07-11T06:26:16.351Z,17.70
2017-07-11T06:28:44.746Z,17.70
2017-07-11T06:31:13.179Z,17.90
2017-07-11T06:33:41.586Z,18.00
2017-07-11T06:36:09.985Z,17.90
2017-07-11T06:38:38.812Z,17.90
2017-07-11T06:41:07.205Z,18.10
2017-07-11T06:43:36.386Z,18.60
2017-07-11T06:46:04.815Z,18.60
2017-07-11T06:48:33.210Z,18.90
2017-07-11T06:51:01.869Z,19.10
2017-07-11T06:53:30.254Z,19.10
2017-07-11T06:55:58.753Z,18.90
2017-07-11T06:58:27.167Z,19.00
2017-07-11T07:00:55.571Z,18.80
2017-07-11T07:03:24.777Z,18.90
2017-07-11T07:05:53.151Z,18.80
2017-07-11T07:08:22.300Z,18.80
2017-07-11T07:10:50.979Z,18.80
2017-07-11T07:13:19.377Z,18.90
2017-07-11T07:15:48.008Z,19.10
2017-07-11T07:18:16.407Z,19.30
2017-07-11T07:20:44.806Z,19.60
2017-07-11T07:23:13.214Z,19.70
2017-07-11T07:25:42.374Z,19.90
2017-07-11T07:28:10.817Z,19.90
2017-07-11T07:30:39.209Z,19.90
2017-07-11T07:33:07.609Z,19.70
2017-07-11T07:35:36.008Z,19.70
2017-07-11T07:38:04.552Z,19.70
2017-07-11T07:40:33.330Z,19.60
2017-07-11T07:43:01.722Z,19.60
2017-07-11T07:45:30.110Z,19.60
2017-07-11T07:47:58.515Z,19.50
2017-07-11T07:50:26.898Z,19.50
2017-07-11T07:52:55.296Z,19.40
2017-07-11T07:55:24.449Z,19.80
2017-07-11T07:57:52.894Z,19.80
2017-07-11T08:00:21.108Z,19.90
2017-07-11T08:02:49.514Z,20.10
2017-07-11T08:05:18.874Z,20.30
2017-07-11T08:07:47.266Z,20.30
2017-07-11T08:10:15.667Z,20.30
2017-07-11T08:12:44.848Z,20.00
2017-07-11T08:15:13.270Z,20.00
2017-07-11T08:17:41.949Z,19.90
2017-07-11T08:20:10.320Z,19.90
2017-07-11T08:22:38.736Z,20.10
2017-07-11T08:25:07.157Z,20.20
2017-07-11T08:27:35.543Z,20.40
2017-07-11T08:30:04.644Z,20.60
2017-07-11T08:32:33.065Z,20.60
2017-07-11T08:35:01.466Z,20.60
2017-07-11T08:37:29.890Z,20.80
2017-07-11T08:39:58.511Z,21.00
2017-07-11T08:42:27.243Z,21.30
2017-07-11T08:44:55.865Z,21.40
2017-07-11T08:47:24.246Z,21.20
2017-07-11T08:49:52.666Z,21.30
2017-07-11T08:52:21.070Z,21.40
2017-07-11T08:54:50.345Z,21.00
2017-07-11T08:57:18.753Z,21.00
2017-07-11T08:59:47.124Z,20.80
2017-07-11T09:02:15.536Z,20.90
2017-07-11T09:04:43.932Z,21.30
2017-07-11T09:07:12.575Z,21.40
2017-07-11T09:09:40.971Z,21.80
2017-07-11T09:12:09.374Z,21.90
2017-07-11T09:14:37.765Z,22.00
2017-07-11T09:17:06.153Z,21.50
2017-07-11T09:19:34.569Z,21.30
2017-07-11T09:22:02.947Z,21.40
2017-07-11T09:24:31.336Z,21.70
2017-07-11T09:26:59.725Z,21.80
2017-07-11T09:29:28.117Z,21.20
2017-07-11T09:31:56.739Z,20.80
2017-07-11T09:34:25.121Z,20.50
2017-07-11T09:36:54.273Z,20.60
2017-07-11T09:39:22.665Z,20.60
2017-07-11T09:41:51.065Z,20.80
2017-07-11T09:44:19.577Z,21.00
2017-07-11T09:46:47.964Z,21.30
2017-07-11T09:49:16.353Z,21.30
2017-07-11T09:51:44.753Z,21.30
2017-07-11T09:54:13.147Z,21.50
2017-07-11T09:56:41.716Z,21.70
2017-07-11T09:59:10.107Z,21.80
2017-07-11T10:01:38.510Z,21.90
2017-07-11T10:04:07.683Z,22.30
2017-07-11T10:06:36.067Z,22.20
2017-07-11T10:09:03.736Z,21.90
2017-07-11T10:11:32.113Z,21.90
2017-07-11T10:14:00.485Z,22.00
2017-07-11T10:16:29.655Z,22.50
2017-07-11T10:18:58.029Z,22.50
2017-07-11T10:21:26.600Z,22.90
2017-07-11T10:23:54.989Z,23.10
2017-07-11T10:26:23.380Z,23.00
2017-07-11T10:28:51.779Z,23.10
2017-07-11T10:31:20.180Z,23.40
2017-07-11T10:33:49.641Z,23.50
2017-07-11T10:36:18.046Z,23.40
2017-07-11T10:38:47.210Z,23.30
2017-07-11T10:41:15.630Z,23.30
2017-07-11T10:43:44.045Z,23.20
2017-07-11T10:46:12.798Z,22.90
2017-07-11T10:48:41.962Z,23.50
2017-07-11T10:51:10.361Z,23.40
2017-07-11T10:53:39.011Z,23.60
2017-07-11T10:56:07.393Z,23.80
2017-07-11T10:58:36.693Z,24.00
2017-07-11T11:01:05.114Z,23.70
2017-07-11T11:03:34.252Z,24.10
2017-07-11T11:06:02.651Z,24.10
2017-07-11T11:08:31.044Z,24.30
2017-07-11T11:10:59.560Z,24.30
2017-07-11T11:13:27.947Z,24.20
2017-07-11T11:15:56.342Z,23.60
2017-07-11T11:18:24.738Z,23.30
2017-07-11T11:20:53.106Z,23.00
2017-07-11T11:23:21.529Z,22.60
2017-07-11T11:25:49.951Z,22.20
2017-07-11T11:28:18.363Z,22.30
2017-07-11T11:30:46.757Z,22.50
2017-07-11T11:33:15.147Z,22.70
2017-07-11T11:35:44.645Z,23.20
2017-07-11T11:38:13.015Z,23.20
2017-07-11T11:40:42.182Z,23.60
2017-07-11T11:43:10.595Z,23.60
2017-07-11T11:45:39.746Z,23.60
2017-07-11T11:48:08.288Z,23.50
2017-07-11T11:50:37.331Z,23.70
2017-07-11T11:53:05.725Z,23.80
2017-07-11T11:55:34.144Z,23.70
2017-07-11T11:58:02.516Z,23.60
2017-07-11T12:00:31.013Z,23.70
2017-07-11T12:02:59.427Z,23.70
2017-07-11T12:05:27.829Z,23.50
2017-07-11T12:07:56.238Z,23.20
2017-07-11T12:10:24.643Z,22.80
2017-07-11T12:12:53.116Z,23.10
2017-07-11T12:15:21.525Z,23.30
2017-07-11T12:17:49.929Z,23.70
2017-07-11T12:20:19.098Z,24.20
2017-07-11T12:22:47.471Z,24.20
2017-07-11T12:25:15.905Z,24.50
2017-07-11T12:27:44.291Z,24.50
2017-07-11T12:30:12.669Z,24.90
2017-07-11T12:32:41.142Z,24.90
2017-07-11T12:35:09.644Z,24.50
2017-07-11T12:37:38.138Z,24.30
2017-07-11T12:40:06.528Z,24.30
2017-07-11T12:42:35.169Z,24.10
2017-07-11T12:45:03.553Z,24.20
2017-07-11T12:47:31.964Z,24.10
2017-07-11T12:50:00.590Z,24.00
2017-07-11T12:52:29.225Z,24.00
2017-07-11T12:54:57.614Z,23.80
2017-07-11T12:57:26.071Z,23.90
2017-07-11T12:59:54.491Z,24.00
2017-07-11T13:02:23.004Z,24.00
2017-07-11T13:04:51.404Z,24.10
2017-07-11T13:07:19.799Z,23.80
2017-07-11T13:09:48.189Z,23.70
2017-07-11T13:12:16.834Z,23.80
2017-07-11T13:14:45.252Z,23.80
2017-07-11T13:17:13.651Z,23.70
2017-07-11T13:19:42.828Z,23.90
2017-07-11T13:22:12.190Z,23.90
2017-07-11T13:24:40.579Z,23.70
2017-07-11T13:27:09.299Z,23.50
2017-07-11T13:29:37.683Z,23.20
2017-07-11T13:32:06.063Z,22.90
2017-07-11T13:34:34.306Z,22.60
2017-07-11T13:37:02.692Z,22.60
2017-07-11T13:39:31.091Z,22.80
2017-07-11T13:41:59.677Z,22.80
2017-07-11T13:44:28.070Z,22.90
2017-07-11T13:46:56.488Z,22.80
2017-07-11T13:49:24.895Z,22.80
2017-07-11T13:51:53.597Z,22.70
2017-07-11T13:54:21.971Z,22.60
2017-07-11T13:56:50.346Z,22.50
2017-07-11T13:59:18.760Z,22.80
2017-07-11T14:01:47.184Z,23.10
2017-07-11T14:04:15.583Z,23.00
2017-07-11T14:06:44.483Z,22.80
2017-07-11T14:09:13.630Z,22.50
2017-07-11T14:11:42.663Z,22.50
2017-07-11T14:14:11.047Z,22.40
2017-07-11T14:16:39.653Z,22.40
2017-07-11T14:19:08.065Z,22.60
2017-07-11T14:21:36.444Z,22.60
2017-07-11T14:24:04.833Z,22.70
2017-07-11T14:26:33.224Z,22.70
2017-07-11T14:29:01.677Z,22.90
2017-07-11T14:31:30.077Z,22.90
2017-07-11T14:33:58.461Z,23.00
2017-07-11T14:36:26.875Z,23.20
2017-07-11T14:38:55.277Z,23.20
2017-07-11T14:41:23.794Z,23.10
2017-07-11T14:43:52.189Z,23.10
2017-07-11T14:46:25.410Z,23.10
2017-07-11T14:48:53.831Z,22.80
2017-07-11T14:51:22.202Z,23.00
2017-07-11T14:53:50.607Z,23.30
2017-07-11T14:56:18.996Z,23.50
2017-07-11T14:58:47.609Z,23.60
2017-07-11T15:01:16.007Z,23.60
2017-07-11T15:03:44.398Z,23.40
2017-07-11T15:06:12.823Z,23.50
2017-07-11T15:08:41.231Z,23.50
2017-07-11T15:11:09.798Z,23.50
2017-07-11T15:13:38.983Z,23.50
2017-07-11T15:16:07.387Z,23.50
2017-07-11T15:18:35.776Z,23.50
2017-07-11T15:21:04.179Z,23.50
2017-07-11T15:23:33.454Z,23.50
2017-07-11T15:26:01.842Z,23.60
2017-07-11T15:28:30.311Z,23.60
2017-07-11T15:30:58.712Z,23.40
2017-07-11T15:33:27.116Z,23.40
2017-07-11T15:35:55.720Z,23.40
2017-07-11T15:38:24.874Z,23.50
2017-07-11T15:40:53.298Z,23.40
2017-07-11T15:43:21.708Z,23.30
2017-07-11T15:45:50.098Z,23.40
2017-07-11T15:48:18.939Z,23.30
2017-07-11T15:50:47.342Z,23.10
2017-07-11T15:53:15.747Z,23.00
2017-07-11T15:55:44.145Z,23.30
2017-07-11T15:58:12.526Z,23.50
2017-07-11T16:00:41.148Z,23.50
2017-07-11T16:03:09.538Z,23.40
2017-07-11T16:05:38.027Z,23.30
2017-07-11T16:08:06.442Z,23.30
2017-07-11T16:10:34.831Z,23.30
2017-07-11T16:13:03.239Z,23.30
2017-07-11T16:15:31.630Z,23.20
2017-07-11T16:18:00.030Z,23.30
2017-07-11T16:20:28.495Z,23.10
2017-07-11T16:22:56.882Z,23.10
2017-07-11T16:25:25.437Z,23.10
2017-07-11T16:27:53.830Z,23.20
2017-07-11T16:30:22.231Z,23.10
2017-07-11T16:32:50.618Z,23.10
2017-07-11T16:35:19.072Z,23.00
2017-07-11T16:37:47.490Z,23.20
2017-07-11T16:40:15.895Z,23.10
2017-07-11T16:42:44.288Z,23.00
2017-07-11T16:45:12.790Z,22.80
2017-07-11T16:47:41.187Z,22.80
2017-07-11T16:50:10.286Z,22.60
2017-07-11T16:52:38.678Z,22.60
2017-07-11T16:55:07.112Z,22.60
2017-07-11T16:57:35.576Z,22.50
2017-07-11T17:00:03.963Z,22.30
2017-07-11T17:02:32.374Z,22.20
2017-07-11T17:05:00.783Z,22.10
2017-07-11T17:07:29.183Z,21.90
2017-07-11T17:09:57.609Z,21.70
2017-07-11T17:12:26.012Z,21.10
2017-07-11T17:14:54.569Z,20.60
2017-07-11T17:17:22.987Z,20.50
2017-07-11T17:19:51.963Z,19.90
2017-07-11T17:22:20.374Z,19.80
2017-07-11T17:24:49.457Z,19.80
2017-07-11T17:27:18.627Z,19.60
2017-07-11T17:29:47.019Z,19.50
2017-07-11T17:32:16.196Z,19.30
2017-07-11T17:34:44.623Z,19.30
2017-07-11T17:37:13.022Z,19.40
2017-07-11T17:39:41.717Z,19.40
2017-07-11T17:42:10.188Z,19.30
2017-07-11T17:44:38.568Z,19.20
2017-07-11T17:47:06.972Z,19.10
2017-07-11T17:49:35.363Z,19.10
2017-07-11T17:52:03.809Z,19.10
2017-07-11T17:54:32.193Z,19.10
2017-07-11T17:57:00.572Z,19.20
2017-07-11T17:59:28.991Z,19.30
2017-07-11T18:01:58.155Z,19.70
2017-07-11T18:04:27.061Z,19.70
2017-07-11T18:06:55.452Z,19.80
2017-07-11T18:09:24.616Z,19.90
2017-07-11T18:11:53.029Z,19.90
2017-07-11T18:14:22.189Z,19.90
2017-07-11T18:16:50.930Z,19.90
2017-07-11T18:19:19.318Z,19.90
2017-07-11T18:21:47.709Z,19.80
2017-07-11T18:24:16.107Z,19.80
2017-07-11T18:26:44.651Z,19.80
2017-07-11T18:29:13.416Z,19.70
2017-07-11T18:31:41.875Z,19.70
2017-07-11T18:34:10.293Z,19.60
2017-07-11T18:36:38.743Z,19.60
2017-07-11T18:39:07.135Z,19.40
2017-07-11T18:41:36.502Z,19.40
2017-07-11T18:44:04.935Z,19.40
2017-07-11T18:46:33.372Z,19.40
2017-07-11T18:49:01.773Z,19.40
2017-07-11T18:51:30.952Z,19.40
2017-07-11T18:53:59.557Z,19.40
2017-07-11T18:56:27.978Z,19.30
2017-07-11T18:58:56.387Z,19.30
2017-07-11T19:01:25.606Z,19.20
2017-07-11T19:03:54.765Z,19.20
2017-07-11T19:06:24.219Z,19.10
2017-07-11T19:08:52.593Z,19.20
2017-07-11T19:11:21.013Z,19.10
2017-07-11T19:13:49.416Z,19.20
2017-07-11T19:16:17.819Z,19.20
2017-07-11T19:18:48.200Z,19.00
2017-07-11T19:21:17.476Z,19.00
2017-07-11T19:23:45.928Z,19.00
2017-07-11T19:26:15.102Z,19.00
2017-07-11T19:28:43.071Z,19.00
2017-07-11T19:31:13.377Z,18.90
2017-07-11T19:33:41.768Z,18.90
2017-07-11T19:36:10.156Z,18.90
2017-07-11T19:38:40.327Z,18.70
2017-07-11T19:41:08.733Z,18.70
2017-07-11T19:43:37.159Z,18.70
2017-07-11T19:46:05.672Z,18.70
2017-07-11T19:48:34.127Z,18.70
2017-07-11T19:51:02.595Z,18.70
2017-07-11T19:53:31.072Z,18.70
2017-07-11T19:56:00.624Z,18.70
2017-07-11T19:58:29.037Z,18.70
2017-07-11T20:00:57.507Z,18.60
2017-07-11T20:03:26.007Z,18.70
2017-07-11T20:05:56.032Z,18.60
2017-07-11T20:08:24.741Z,18.50
2017-07-11T20:10:53.355Z,18.60
2017-07-11T20:13:21.961Z,18.50
2017-07-11T20:15:50.501Z,18.60
2017-07-11T20:18:18.957Z,18.60
2017-07-11T20:20:47.627Z,18.60
2017-07-11T20:23:16.039Z,18.60
2017-07-11T20:25:44.451Z,18.60
2017-07-11T20:28:12.866Z,18.60
2017-07-11T20:30:41.264Z,18.60
2017-07-11T20:33:09.924Z,18.60
2017-07-11T20:35:39.178Z,18.50
2017-07-11T20:38:07.581Z,18.50
2017-07-11T20:40:35.971Z,18.50
2017-07-11T20:43:05.125Z,18.40
2017-07-11T20:45:33.552Z,18.40
2017-07-11T20:48:02.790Z,18.40
2017-07-11T20:50:31.177Z,18.40
2017-07-11T20:52:59.568Z,18.40
2017-07-11T20:55:27.950Z,18.40
2017-07-11T20:57:56.570Z,18.40
2017-07-11T21:00:25.727Z,18.40
2017-07-11T21:02:54.130Z,18.40
2017-07-11T21:05:22.517Z,18.30
2017-07-11T21:07:51.688Z,18.30
2017-07-11T21:10:20.883Z,18.30
2017-07-11T21:12:49.272Z,18.30
2017-07-11T21:15:17.664Z,18.30
2017-07-11T21:17:46.630Z,18.30
2017-07-11T21:20:15.007Z,18.30
2017-07-11T21:22:43.609Z,18.30
2017-07-11T21:25:12.778Z,18.30
2017-07-11T21:27:41.171Z,18.30
2017-07-11T21:30:09.562Z,18.30
2017-07-11T21:32:37.937Z,18.30
2017-07-11T21:35:07.252Z,18.30
2017-07-11T21:37:36.401Z,18.40
2017-07-11T21:40:04.796Z,18.30
2017-07-11T21:42:33.279Z,18.30
2017-07-11T21:45:01.658Z,18.40
2017-07-11T21:47:30.084Z,18.30
2017-07-11T21:49:58.474Z,18.30
2017-07-11T21:52:27.118Z,18.40
2017-07-11T21:54:56.272Z,18.40
2017-07-11T21:57:24.647Z,18.40
2017-07-11T21:59:53.746Z,18.30
2017-07-11T22:02:22.129Z,18.30
2017-07-11T22:04:50.505Z,18.30
2017-07-11T22:07:18.909Z,18.30
2017-07-11T22:09:47.284Z,18.30
2017-07-11T22:12:16.485Z,18.30
2017-07-11T22:14:44.884Z,18.20
2017-07-11T22:17:13.260Z,18.20
2017-07-11T22:19:41.916Z,18.20
2017-07-11T22:22:10.312Z,18.20
2017-07-11T22:24:38.820Z,18.20
2017-07-11T22:27:07.196Z,18.30
2017-07-11T22:29:35.690Z,18.30
2017-07-11T22:32:04.093Z,18.30
2017-07-11T22:34:32.485Z,18.30
2017-07-11T22:37:00.979Z,18.40
2017-07-11T22:39:29.351Z,18.30
2017-07-11T22:41:57.756Z,18.40
2017-07-11T22:44:26.910Z,18.40
2017-07-11T22:46:55.304Z,18.40
2017-07-11T22:49:23.927Z,18.40
2017-07-11T22:51:52.306Z,18.40
2017-07-11T22:54:20.709Z,18.40
2017-07-11T22:56:49.107Z,18.40
2017-07-11T22:59:17.498Z,18.50
2017-07-11T23:01:45.907Z,18.40
2017-07-11T23:04:14.297Z,18.40
2017-07-11T23:06:42.686Z,18.50
2017-07-11T23:09:11.094Z,18.40
2017-07-11T23:11:39.501Z,18.40
2017-07-11T23:14:08.919Z,18.40
2017-07-11T23:16:38.074Z,18.50
2017-07-11T23:19:06.447Z,18.50
2017-07-11T23:21:34.853Z,18.40
2017-07-11T23:24:04.020Z,18.50
2017-07-11T23:26:32.848Z,18.50
2017-07-11T23:29:02.010Z,18.40
2017-07-11T23:31:30.390Z,18.40
2017-07-11T23:33:58.791Z,18.40
2017-07-11T23:36:27.948Z,18.40
2017-07-11T23:38:56.640Z,18.40
2017-07-11T23:41:25.046Z,18.40
2017-07-11T23:43:54.222Z,18.50
2017-07-11T23:46:22.625Z,18.50
2017-07-11T23:48:51.780Z,18.50
2017-07-11T23:51:20.189Z,18.40
2017-07-11T23:53:48.564Z,18.50
2017-07-11T23:56:16.953Z,18.60
2017-07-11T23:58:46.124Z,18.60
